Latest Coastal Weather Observations for Kowanyama

IDQ60701

Issued at 8:22 am EST Wednesday 29 November 2023 (issued every 10 minutes, with the page automatically refreshed every 10 minutes)

About coastal observations | Map of coastal stations | Coastal observations for QLD | Marine services | Other Formats
Station Details ID: 029038 Name: KOWANYAMA AIRPORT Lat: -15.48 Lon: 141.75 Height: 9.6 m
Data from the previous 72 hours. | See also: Recent months at Kowanyama
Date/Time
EST
Wind Sea
Height
m
Swell Vis
km
Cloud Weather Temp
°C
Press
MSL
hPa
Rain since
9am
mm
Dir  Spd
kts
Gust
kts
Height
m
Period
s
Dir
29/08:00am N 6 11 - - - - 10 - - 29.9 1010.3 0.2
29/07:30am NNE 6 8 - - - - 10 - - 28.6 1010.2 0.2
29/07:00am NNE 3 5 - - - - 10 - - 27.8 1009.9 0.2
29/06:30am ENE 2 4 - - - - 10 - - 26.6 1009.3 0.2
29/06:00am NNE 3 4 - - - - 10 - - 26.4 1009.0 0.2
29/05:30am NNE 3 4 - - - - 10 - - 26.6 1008.8 0.2
29/05:00am NNE 2 4 - - - - 10 - - 26.8 1008.5 0.2
29/04:30am NNE 4 5 - - - - 10 - - 27.1 1008.3 0.2
29/04:00am NNE 4 5 - - - - 10 - - 27.2 1008.2 0.2
29/03:30am NE 1 5 - - - - 10 - - 26.9 1008.1 0.2
29/03:00am CALM 0 0 - - - - 10 - - 27.1 1008.0 0.2
29/02:30am CALM 0 0 - - - - 10 Partly cloudy - 27.4 1008.1 0.2
29/02:00am CALM 0 0 - - - - 10 Partly cloudy - 27.7 1008.2 0.2
29/01:30am NE 2 4 - - - - 10 Partly cloudy - 27.6 1008.5 0.2
29/01:00am NE 2 3 - - - - 10 Partly cloudy - 27.7 1008.7 0.2
29/12:30am ENE 3 4 - - - - 10 Partly cloudy - 27.9 1008.9 0.2
29/12:00am NE 3 5 - - - - 10 Mostly cloudy - 28.2 1009.3 0.2
 
Date/Time
EST
Wind Sea
Height
m
Swell Vis
km
Cloud Weather Temp
°C
Press
MSL
hPa
Rain since
9am
mm
Dir  Spd
kts
Gust
kts
Height
m
Period
s
Dir
28/11:30pm NNE 4 6 - - - - 10 Partly cloudy - 28.3 1009.5 0.2
28/11:00pm E 2 5 - - - - 10 Partly cloudy - 28.0 1009.3 0.2
28/10:30pm SW 3 4 - - - - 10 Partly cloudy - 28.0 1009.0 0.2
28/10:00pm WSW 4 5 - - - - 10 - - 28.1 1008.9 0.2
28/09:30pm WSW 5 6 - - - - 10 - - 28.2 1008.5 0.2
28/09:00pm SW 4 6 - - - - 10 - - 28.5 1008.2 0.2
28/08:30pm WSW 5 7 - - - - 10 - - 28.9 1007.9 0.2
28/08:00pm WSW 6 8 - - - - 10 - - 29.3 1007.7 0.2
28/07:30pm WSW 6 8 - - - - 10 - - 29.7 1007.4 0.2
28/07:00pm WSW 7 9 - - - - 10 - - 30.3 1007.3 0.2
28/06:30pm W 9 12 - - - - 10 - - 31.1 1007.1 0.2
28/06:00pm W 9 13 - - - - 10 - - 32.2 1006.7 0.2
28/05:30pm W 9 11 - - - - 10 - - 33.3 1006.3 0.2
28/05:00pm W 9 13 - - - - 10 - - 34.2 1006.2 0.2
28/04:30pm WNW 9 13 - - - - 10 - - 35.2 1006.1 0.2
28/04:00pm WNW 10 15 - - - - 10 - - 34.8 1006.2 0.2
28/03:30pm WNW 9 14 - - - - 10 - - 35.2 1006.4 0.2
28/03:00pm NW 8 11 - - - - 10 - Recent precip. 34.8 1006.8 0.2
28/02:30pm NNW 5 9 - - - - 10 - - 36.8 1007.2 0.2
28/02:00pm W 6 7 - - - - 10 Partly cloudy - 33.9 1007.7 0.0
28/01:30pm NNW 6 10 - - - - 10 Partly cloudy - 32.0 1008.3 0.0
28/01:00pm WNW 3 6 - - - - 10 Partly cloudy - 34.0 1008.5 0.0
28/12:30pm ESE 7 11 - - - - 10 Partly cloudy - 34.1 1008.9 0.0
28/12:00pm SW 3 6 - - - - 10 - - 34.0 1009.3 0.0
28/11:30am ENE 4 7 - - - - 10 Partly cloudy - 34.9 1009.8 0.0
28/11:00am E 3 6 - - - - 10 Partly cloudy - 33.4 1010.2 0.0
28/10:30am ENE 4 6 - - - - 10 Partly cloudy - 32.3 1010.6 0.0
28/10:00am E 5 8 - - - - 10 - - 31.7 1010.8 0.0
28/09:30am ENE 5 7 - - - - 10 - - 30.6 1011.0 0.0
28/09:00am NE 4 7 - - - - 10 - - 30.8 1011.1 0.0
28/08:30am NE 5 7 - - - - 10 - - 29.2 1011.0 0.0
28/08:00am NE 4 6 - - - - 10 Partly cloudy - 27.9 1011.0 0.0
28/07:30am NE 4 7 - - - - 10 Partly cloudy - 27.0 1010.8 0.0
28/07:00am E 4 5 - - - - 10 Partly cloudy - 26.4 1010.7 0.0
28/06:30am NE 2 4 - - - - 10 Partly cloudy - 26.0 1010.3 0.0
28/06:00am E 2 4 - - - - 10 Cloudy - 25.8 1009.9 0.0
28/05:30am CALM 0 0 - - - - 10 Partly cloudy - 25.8 1009.6 0.0
28/05:00am NE 1 4 - - - - 10 Partly cloudy - 25.7 1009.1 0.0
28/04:30am NE 4 6 - - - - 10 - - 25.9 1008.9 0.0
28/04:00am NE 3 6 - - - - 10 Partly cloudy - 26.0 1008.9 0.0
28/03:30am ENE 3 5 - - - - 10 Partly cloudy - 26.1 1009.2 0.0
28/03:00am E 4 5 - - - - 10 Cloudy - 26.2 1009.0 0.0
28/02:30am E 4 7 - - - - 10 Partly cloudy - 26.3 1009.1 0.0
28/02:00am ENE 4 6 - - - - 10 - - 26.4 1009.1 0.0
28/01:30am E 4 6 - - - - 10 Cloudy - 26.6 1009.1 0.0
28/01:00am ENE 4 5 - - - - 10 Partly cloudy - 26.6 1009.1 0.0
28/12:30am E 3 5 - - - - 10 - - 26.9 1009.5 0.0
28/12:00am ENE 1 4 - - - - 10 Mostly cloudy - 27.2 1009.6 0.0
 
Date/Time
EST
Wind Sea
Height
m
Swell Vis
km
Cloud Weather Temp
°C
Press
MSL
hPa
Rain since
9am
mm
Dir  Spd
kts
Gust
kts
Height
m
Period
s
Dir
27/11:30pm CALM 0 3 - - - - 10 Partly cloudy - 27.2 1009.8 0.0
27/11:00pm NE 3 4 - - - - 10 Partly cloudy - 27.1 1009.8 0.0
27/10:30pm NE 3 4 - - - - 10 - - 27.3 1009.6 0.0
27/10:00pm NE 4 4 - - - - 10 - - 27.4 1009.0 0.0
27/09:30pm CALM 0 0 - - - - 10 - - 27.7 1008.5 0.0
27/09:00pm WSW 3 4 - - - - 10 - - 27.9 1008.4 0.0
27/08:30pm SSW 4 5 - - - - 10 - - 28.2 1008.8 0.0
27/08:00pm SW 5 7 - - - - 10 Partly cloudy - 28.5 1008.7 0.0
27/07:30pm WSW 7 9 - - - - 10 Partly cloudy - 28.8 1008.6 0.0
27/07:00pm W 8 12 - - - - 10 Partly cloudy - 29.1 1008.1 0.0
27/06:30pm W 9 11 - - - - 10 Partly cloudy - 29.4 1007.6 0.0
27/06:00pm W 12 18 - - - - 10 Mostly clear - 30.0 1006.9 0.0
27/05:30pm W 11 15 - - - - 10 - - 31.0 1006.8 0.0
27/05:00pm W 11 16 - - - - 10 - - 31.7 1006.5 0.0
27/04:30pm WNW 13 17 - - - - 10 - - 32.3 1006.2 0.0
27/04:00pm W 13 18 - - - - 10 - - 32.4 1005.9 0.0
27/03:30pm WNW 14 19 - - - - 10 Partly cloudy - 33.3 1005.9 0.0
27/03:00pm WNW 13 17 - - - - 10 Mostly clear - 33.9 1006.2 0.0
27/02:30pm WNW 13 16 - - - - 10 Partly cloudy - 34.0 1006.4 0.0
27/02:00pm NW 8 12 - - - - 10 Partly cloudy - 34.8 1006.7 0.0
27/01:30pm NW 8 13 - - - - 10 Partly cloudy - 35.6 1007.0 0.0
27/01:00pm N 6 9 - - - - 10 Partly cloudy - 35.6 1007.4 0.0
27/12:30pm N 7 11 - - - - 10 Partly cloudy - 35.3 1007.9 0.0
27/12:00pm NNE 4 6 - - - - 10 Cloudy - 34.0 1008.6 0.0
27/11:30am NNW 4 9 - - - - 10 Partly cloudy - 34.0 1008.9 0.0
27/11:00am NNW 6 16 - - - - 10 Partly cloudy - 33.5 1009.1 0.0
27/10:30am N 4 7 - - - - 10 Partly cloudy - 32.8 1009.4 0.0
27/10:00am NE 7 12 - - - - 10 Partly cloudy - 31.9 1009.5 0.0
27/09:30am NNE 7 10 - - - - 10 - - 30.6 1010.0 0.0
27/09:00am NE 7 11 - - - - 10 Mostly clear - 29.3 1009.8 0.0
27/08:30am NNE 6 10 - - - - 10 - - 29.1 1009.9 0.0
27/08:00am NNE 5 8 - - - - 10 - - 28.4 1009.8 0.0
27/07:30am NE 4 6 - - - - 10 - - 28.2 1009.6 0.0
27/07:00am NE 4 6 - - - - 10 Partly cloudy - 27.6 1009.3 0.0
27/06:30am NNE 5 6 - - - - 10 - - 27.0 1008.9 0.0
27/06:00am NNE 4 6 - - - - 10 Cloudy - 26.9 1008.5 0.0
27/05:30am ENE 4 6 - - - - 10 Partly cloudy - 26.9 1008.1 0.0
27/05:00am NNE 5 7 - - - - 10 Partly cloudy - 27.4 1008.5 0.0
27/04:30am NE 6 11 - - - - 10 Partly cloudy - 27.5 1008.3 0.0
27/04:00am E 2 4 - - - - 10 Partly cloudy - 27.3 1008.1 0.0
27/03:30am E 3 4 - - - - 10 Partly cloudy - 27.2 1007.9 0.0
27/03:00am CALM 0 0 - - - - 10 Cloudy - 27.2 1008.0 0.0
27/02:30am ENE 1 4 - - - - 10 Cloudy - 27.1 1008.0 0.0
27/02:00am NE 3 4 - - - - 10 Partly cloudy - 27.0 1008.2 0.0
27/01:30am CALM 0 0 - - - - 10 Partly cloudy - 27.1 1008.2 0.0
27/01:00am CALM 0 0 - - - - 10 Partly cloudy - 27.2 1008.5 0.0
27/12:30am CALM 0 3 - - - - 10 Partly cloudy - 27.3 1008.7 0.0
27/12:00am NE 4 5 - - - - 10 Cloudy - 27.4 1009.0 0.0
 
Date/Time
EST
Wind Sea
Height
m
Swell Vis
km
Cloud Weather Temp
°C
Press
MSL
hPa
Rain since
9am
mm
Dir  Spd
kts
Gust
kts
Height
m
Period
s
Dir
26/11:30pm ENE 5 6 - - - - 10 Partly cloudy - 27.3 1009.0 0.0
26/11:00pm CALM 0 1 - - - - 10 - - 27.6 1008.7 0.0
26/10:30pm WSW 4 5 - - - - 10 - - 27.8 1008.5 0.0
26/10:00pm WSW 5 6 - - - - 10 - - 27.9 1008.3 0.0
26/09:30pm W 5 7 - - - - 10 - - 28.1 1008.0 0.0
26/09:00pm WSW 4 6 - - - - 10 Mostly clear - 28.2 1007.8 0.0
26/08:30pm SSW 5 7 - - - - 10 - - 28.4 1007.3 0.0
26/08:00pm SSW 4 5 - - - - 10 - - 28.5 1006.8 0.0
26/07:30pm WSW 3 4 - - - - 10 - - 28.8 1006.8 0.0
26/07:00pm WSW 5 7 - - - - 10 - - 29.2 1006.7 0.0
26/06:30pm W 8 11 - - - - 10 - - 29.9 1006.6 0.0
26/06:00pm W 11 15 - - - - 10 - - 31.1 1006.6 0.0
26/05:30pm W 11 15 - - - - 10 - - 32.0 1006.4 0.0
26/05:00pm W 12 17 - - - - 10 - - 32.6 1006.4 0.0
26/04:30pm W 10 15 - - - - 10 Partly cloudy - 34.8 1006.1 0.0
26/04:00pm W 6 10 - - - - 10 Partly cloudy - 35.2 1005.9 0.0
26/03:30pm W 7 10 - - - - 10 Partly cloudy - 34.1 1006.0 0.0
26/03:00pm ENE 4 5 - - - - 10 Cloudy - 35.0 1006.3 0.0
26/02:30pm ENE 5 7 - - - - 10 Partly cloudy - 36.6 1006.6 0.0
26/02:00pm SW 2 4 - - - - 10 Partly cloudy - 36.7 1007.2 0.0
26/01:30pm NE 5 8 - - - - 10 Partly cloudy - 34.2 1007.6 0.0
26/01:00pm ESE 6 9 - - - - 10 - - 34.1 1008.0 0.0
26/12:30pm NNE 5 9 - - - - 10 Partly cloudy - 34.7 1008.6 0.0
26/12:00pm NE 7 13 - - - - 10 - - 33.8 1009.0 0.0
26/11:30am NE 7 11 - - - - 10 - - 33.8 1009.3 0.0
26/11:00am NE 7 12 - - - - 10 - - 32.9 1009.7 0.0
26/10:30am NE 9 14 - - - - 10 - - 31.3 1010.0 0.0
26/10:00am NE 9 14 - - - - 10 - - 30.7 1010.5 0.0
26/09:30am NE 9 14 - - - - 10 - - 29.3 1010.8 0.0
26/09:00am NE 8 12 - - - - 10 - - 29.6 1010.8 0.0
26/08:30am NE 9 14 - - - - 10 - - 28.3 1011.0 0.0

Other formats

Comma delimited format used in spreadsheet applications
http://www.bom.gov.au/fwo/IDQ60701/IDQ60701.94268.axf

JavaScript Object Notation format (JSON) in row-major order
http://www.bom.gov.au/fwo/IDQ60701/IDQ60701.94268.json

Data quality

Most of these data are generated automatically and are frequently updated. Quality checks on data are not normally performed. It is possible for incorrect values to appear. Refer to information at About Latest Weather Observations and please check the disclaimer before using these data.